Pagina principale
METAR-TAF:

METAR-TAF

Aeroporti :

Aeroporto di Treviso-Sant'Angelo

Treviso, Italia

latitudine: 45-39N, longitudine: 012-11E, altezza: 18 m

Osservazione

Il bollettino è stato emesso 38 minuti fa, alle 19:20 UTC
Vento 4 kt da sud-est
Temperature 20°C
Umidità 78%
Pressione 1012 hPa
Visibilità 10 km o più
nessuna nube inferiore a 1500 m e nessun cumulonembo

METAR: LIPH 241920Z 13004KT CAVOK 20/16 Q1012

Ora: 21:58 (19:58 UTC)

Previsione

Il bollettino è stato emesso 2 ore e 58 minuti fa, alle 17:00 UTC
Previsione valida dal 24 alle 18 UTC al 25 alle 18 UTC
Vento 5 kt da direzioni variabili
Visibilità 10 km o più
Nubi sparse ad un'altezza di 4000 ft
Temporaneamente
dal 25 alle 00 UTC al 25 alle 06 UTC
Visibilità: 4000 m
foschia
Temporaneamente
dal 25 alle 14 UTC al 25 alle 18 UTC
rovesci di pioggia

TAF: LIPH 241700Z 2418/2518 VRB05KT 9999 SCT040 TEMPO 2500/2506 4000 BR TEMPO 2514/2518 SHRA

Osservazioni e previsioni meteorologiche di più di 4000 aeroporti (messaggi METAR e TAF).

Le stazioni disponibili sono rappresentate dai dischi gialli e rossi sulla carta.

Puntare il mouse per vedere il nome della stazione.

Clicca sopra per visualizzare le osservazioni e previsioni meteorologiche.

Per cambiare la mappa : fare clic sui pulsanti verdi con una croce nera per ingrandire, il pulsante verde con un trattino per diminuire, o sulla freccia verde per le mappe adiacenti.


METAR-TAF: